sensor_id;sensor_type;location;lat;lon;timestamp;P1;durP1;ratioP1;P2;durP2;ratioP2
4585;SDS011;2305;50.118;8.952;2022-08-21T00:00:52;8.40;;;5.20;;
4585;SDS011;2305;50.118;8.952;2022-08-21T00:03:21;6.63;;;4.70;;
4585;SDS011;2305;50.118;8.952;2022-08-21T00:05:49;7.90;;;4.83;;
4585;SDS011;2305;50.118;8.952;2022-08-21T00:08:20;8.37;;;5.87;;
4585;SDS011;2305;50.118;8.952;2022-08-21T00:10:48;6.17;;;4.70;;
4585;SDS011;2305;50.118;8.952;2022-08-21T00:13:17;5.20;;;4.70;;
4585;SDS011;2305;50.118;8.952;2022-08-21T00:15:48;7.50;;;4.70;;
4585;SDS011;2305;50.118;8.952;2022-08-21T00:18:17;6.10;;;4.50;;
4585;SDS011;2305;50.118;8.952;2022-08-21T00:20:46;6.10;;;4.90;;
4585;SDS011;2305;50.118;8.952;2022-08-21T00:23:15;9.30;;;4.60;;
4585;SDS011;2305;50.118;8.952;2022-08-21T00:25:43;6.20;;;4.57;;
4585;SDS011;2305;50.118;8.952;2022-08-21T00:28:12;7.53;;;5.20;;
4585;SDS011;2305;50.118;8.952;2022-08-21T00:30:41;10.20;;;5.40;;
4585;SDS011;2305;50.118;8.952;2022-08-21T00:33:11;7.83;;;5.30;;
4585;SDS011;2305;50.118;8.952;2022-08-21T00:35:41;6.30;;;5.10;;
4585;SDS011;2305;50.118;8.952;2022-08-21T00:38:11;8.97;;;5.40;;
4585;SDS011;2305;50.118;8.952;2022-08-21T00:40:46;8.00;;;4.67;;
4585;SDS011;2305;50.118;8.952;2022-08-21T00:43:17;10.40;;;5.20;;
4585;SDS011;2305;50.118;8.952;2022-08-21T00:45:47;6.20;;;4.57;;
4585;SDS011;2305;50.118;8.952;2022-08-21T00:48:16;8.07;;;5.30;;
4585;SDS011;2305;50.118;8.952;2022-08-21T00:50:46;7.63;;;5.10;;
4585;SDS011;2305;50.118;8.952;2022-08-21T00:53:17;5.93;;;5.17;;
4585;SDS011;2305;50.118;8.952;2022-08-21T00:55:46;8.70;;;5.33;;
4585;SDS011;2305;50.118;8.952;2022-08-21T00:58:15;7.03;;;5.10;;
4585;SDS011;2305;50.118;8.952;2022-08-21T01:00:46;7.80;;;5.00;;
4585;SDS011;2305;50.118;8.952;2022-08-21T01:03:17;12.83;;;5.37;;
4585;SDS011;2305;50.118;8.952;2022-08-21T01:05:50;7.10;;;4.70;;
4585;SDS011;2305;50.118;8.952;2022-08-21T01:08:18;7.07;;;5.30;;
4585;SDS011;2305;50.118;8.952;2022-08-21T01:10:47;7.27;;;5.20;;
4585;SDS011;2305;50.118;8.952;2022-08-21T01:13:25;8.90;;;5.40;;
4585;SDS011;2305;50.118;8.952;2022-08-21T01:15:54;7.37;;;4.87;;
4585;SDS011;2305;50.118;8.952;2022-08-21T01:18:27;8.43;;;5.33;;
4585;SDS011;2305;50.118;8.952;2022-08-21T01:21:02;6.80;;;5.60;;
4585;SDS011;2305;50.118;8.952;2022-08-21T01:23:33;6.93;;;5.40;;
4585;SDS011;2305;50.118;8.952;2022-08-21T01:26:02;7.17;;;5.60;;
4585;SDS011;2305;50.118;8.952;2022-08-21T01:28:33;13.40;;;5.83;;
4585;SDS011;2305;50.118;8.952;2022-08-21T01:31:07;8.80;;;6.00;;
4585;SDS011;2305;50.118;8.952;2022-08-21T01:33:37;5.77;;;5.07;;
4585;SDS011;2305;50.118;8.952;2022-08-21T01:36:07;11.83;;;5.43;;
4585;SDS011;2305;50.118;8.952;2022-08-21T01:38:35;7.70;;;5.70;;
4585;SDS011;2305;50.118;8.952;2022-08-21T01:41:03;7.17;;;5.80;;
4585;SDS011;2305;50.118;8.952;2022-08-21T01:43:31;7.40;;;5.30;;
4585;SDS011;2305;50.118;8.952;2022-08-21T01:46:05;13.30;;;5.23;;
4585;SDS011;2305;50.118;8.952;2022-08-21T01:48:33;7.70;;;6.30;;
4585;SDS011;2305;50.118;8.952;2022-08-21T01:51:02;7.80;;;5.37;;
4585;SDS011;2305;50.118;8.952;2022-08-21T01:53:31;7.20;;;5.30;;
4585;SDS011;2305;50.118;8.952;2022-08-21T01:56:03;8.43;;;4.97;;
4585;SDS011;2305;50.118;8.952;2022-08-21T01:58:38;8.40;;;6.30;;
4585;SDS011;2305;50.118;8.952;2022-08-21T02:01:07;6.20;;;4.77;;
4585;SDS011;2305;50.118;8.952;2022-08-21T02:03:36;10.73;;;5.63;;
4585;SDS011;2305;50.118;8.952;2022-08-21T02:06:05;7.40;;;5.90;;
4585;SDS011;2305;50.118;8.952;2022-08-21T02:08:36;6.63;;;4.93;;
4585;SDS011;2305;50.118;8.952;2022-08-21T02:11:06;7.33;;;5.93;;
4585;SDS011;2305;50.118;8.952;2022-08-21T02:13:34;7.30;;;4.80;;
4585;SDS011;2305;50.118;8.952;2022-08-21T02:16:02;7.50;;;5.43;;
4585;SDS011;2305;50.118;8.952;2022-08-21T02:18:30;12.17;;;6.60;;
4585;SDS011;2305;50.118;8.952;2022-08-21T02:21:01;9.00;;;5.23;;
4585;SDS011;2305;50.118;8.952;2022-08-21T02:23:29;8.80;;;5.60;;
4585;SDS011;2305;50.118;8.952;2022-08-21T02:25:59;7.33;;;5.10;;
4585;SDS011;2305;50.118;8.952;2022-08-21T02:28:29;6.57;;;5.33;;
4585;SDS011;2305;50.118;8.952;2022-08-21T02:30:57;7.00;;;5.03;;
4585;SDS011;2305;50.118;8.952;2022-08-21T02:33:25;8.57;;;5.73;;
4585;SDS011;2305;50.118;8.952;2022-08-21T02:35:54;7.90;;;5.80;;
4585;SDS011;2305;50.118;8.952;2022-08-21T02:38:24;6.77;;;5.30;;
4585;SDS011;2305;50.118;8.952;2022-08-21T02:40:55;10.60;;;5.57;;
4585;SDS011;2305;50.118;8.952;2022-08-21T02:43:26;9.13;;;5.37;;
4585;SDS011;2305;50.118;8.952;2022-08-21T02:45:57;7.23;;;5.93;;
4585;SDS011;2305;50.118;8.952;2022-08-21T02:48:27;8.17;;;5.80;;
4585;SDS011;2305;50.118;8.952;2022-08-21T02:50:57;6.87;;;5.57;;
4585;SDS011;2305;50.118;8.952;2022-08-21T02:53:27;10.90;;;6.90;;
4585;SDS011;2305;50.118;8.952;2022-08-21T02:55:58;11.53;;;6.07;;
4585;SDS011;2305;50.118;8.952;2022-08-21T02:58:30;6.93;;;5.60;;
4585;SDS011;2305;50.118;8.952;2022-08-21T03:01:02;6.83;;;5.73;;
4585;SDS011;2305;50.118;8.952;2022-08-21T03:03:31;14.00;;;6.90;;
4585;SDS011;2305;50.118;8.952;2022-08-21T03:06:02;13.30;;;6.33;;
4585;SDS011;2305;50.118;8.952;2022-08-21T03:08:33;7.73;;;5.90;;
4585;SDS011;2305;50.118;8.952;2022-08-21T03:11:06;6.67;;;5.77;;
4585;SDS011;2305;50.118;8.952;2022-08-21T03:13:37;8.37;;;6.43;;
4585;SDS011;2305;50.118;8.952;2022-08-21T03:16:06;13.03;;;5.63;;
4585;SDS011;2305;50.118;8.952;2022-08-21T03:18:35;8.50;;;6.60;;
4585;SDS011;2305;50.118;8.952;2022-08-21T03:21:05;9.10;;;6.10;;
4585;SDS011;2305;50.118;8.952;2022-08-21T03:23:34;9.10;;;5.67;;
4585;SDS011;2305;50.118;8.952;2022-08-21T03:26:02;11.77;;;6.73;;
4585;SDS011;2305;50.118;8.952;2022-08-21T03:28:30;9.57;;;6.80;;
4585;SDS011;2305;50.118;8.952;2022-08-21T03:31:00;10.13;;;6.07;;
4585;SDS011;2305;50.118;8.952;2022-08-21T03:33:28;16.30;;;6.00;;
4585;SDS011;2305;50.118;8.952;2022-08-21T03:35:59;7.97;;;6.60;;
4585;SDS011;2305;50.118;8.952;2022-08-21T03:38:31;7.83;;;6.30;;
4585;SDS011;2305;50.118;8.952;2022-08-21T03:41:00;12.10;;;7.10;;
4585;SDS011;2305;50.118;8.952;2022-08-21T03:43:29;10.70;;;6.93;;
4585;SDS011;2305;50.118;8.952;2022-08-21T03:45:59;6.90;;;6.20;;
4585;SDS011;2305;50.118;8.952;2022-08-21T03:48:28;9.87;;;6.70;;
4585;SDS011;2305;50.118;8.952;2022-08-21T03:50:56;11.10;;;7.10;;
4585;SDS011;2305;50.118;8.952;2022-08-21T03:53:24;8.10;;;6.50;;
4585;SDS011;2305;50.118;8.952;2022-08-21T03:55:52;11.60;;;6.50;;
4585;SDS011;2305;50.118;8.952;2022-08-21T03:58:22;10.33;;;6.70;;
4585;SDS011;2305;50.118;8.952;2022-08-21T04:00:51;12.37;;;7.50;;
4585;SDS011;2305;50.118;8.952;2022-08-21T04:03:23;11.33;;;6.77;;
4585;SDS011;2305;50.118;8.952;2022-08-21T04:05:51;11.40;;;7.57;;
4585;SDS011;2305;50.118;8.952;2022-08-21T04:08:19;8.60;;;6.77;;
4585;SDS011;2305;50.118;8.952;2022-08-21T04:10:48;14.23;;;7.43;;
4585;SDS011;2305;50.118;8.952;2022-08-21T04:13:18;9.17;;;6.50;;
4585;SDS011;2305;50.118;8.952;2022-08-21T04:15:46;12.07;;;7.47;;
4585;SDS011;2305;50.118;8.952;2022-08-21T04:18:15;12.63;;;7.27;;
4585;SDS011;2305;50.118;8.952;2022-08-21T04:20:45;7.93;;;7.10;;
4585;SDS011;2305;50.118;8.952;2022-08-21T04:23:16;10.73;;;6.80;;
4585;SDS011;2305;50.118;8.952;2022-08-21T04:25:50;12.93;;;7.73;;
4585;SDS011;2305;50.118;8.952;2022-08-21T04:28:18;9.60;;;6.70;;
4585;SDS011;2305;50.118;8.952;2022-08-21T04:30:48;9.53;;;6.80;;
4585;SDS011;2305;50.118;8.952;2022-08-21T04:33:18;13.97;;;7.40;;
4585;SDS011;2305;50.118;8.952;2022-08-21T04:35:47;9.27;;;6.30;;
4585;SDS011;2305;50.118;8.952;2022-08-21T04:38:16;9.03;;;7.03;;
4585;SDS011;2305;50.118;8.952;2022-08-21T04:40:47;9.33;;;7.40;;
4585;SDS011;2305;50.118;8.952;2022-08-21T04:43:16;8.57;;;6.50;;
4585;SDS011;2305;50.118;8.952;2022-08-21T04:45:46;9.50;;;6.93;;
4585;SDS011;2305;50.118;8.952;2022-08-21T04:48:16;12.40;;;8.13;;
4585;SDS011;2305;50.118;8.952;2022-08-21T04:50:48;10.20;;;7.53;;
4585;SDS011;2305;50.118;8.952;2022-08-21T04:53:20;9.30;;;7.53;;
4585;SDS011;2305;50.118;8.952;2022-08-21T04:55:52;11.70;;;7.17;;
4585;SDS011;2305;50.118;8.952;2022-08-21T04:58:25;12.33;;;7.67;;
4585;SDS011;2305;50.118;8.952;2022-08-21T05:00:55;10.60;;;6.90;;
4585;SDS011;2305;50.118;8.952;2022-08-21T05:03:25;8.30;;;6.47;;
4585;SDS011;2305;50.118;8.952;2022-08-21T05:05:55;8.50;;;7.00;;
4585;SDS011;2305;50.118;8.952;2022-08-21T05:08:23;8.50;;;7.50;;
4585;SDS011;2305;50.118;8.952;2022-08-21T05:10:54;7.67;;;6.70;;
4585;SDS011;2305;50.118;8.952;2022-08-21T05:13:26;8.40;;;7.50;;
4585;SDS011;2305;50.118;8.952;2022-08-21T05:15:54;7.70;;;6.90;;
4585;SDS011;2305;50.118;8.952;2022-08-21T05:18:23;11.03;;;6.47;;
4585;SDS011;2305;50.118;8.952;2022-08-21T05:20:51;9.00;;;6.60;;
4585;SDS011;2305;50.118;8.952;2022-08-21T05:23:20;10.50;;;8.00;;
4585;SDS011;2305;50.118;8.952;2022-08-21T05:25:48;8.87;;;7.13;;
4585;SDS011;2305;50.118;8.952;2022-08-21T05:28:18;10.50;;;7.47;;
4585;SDS011;2305;50.118;8.952;2022-08-21T05:30:46;14.17;;;8.57;;
4585;SDS011;2305;50.118;8.952;2022-08-21T05:33:14;9.47;;;7.93;;
4585;SDS011;2305;50.118;8.952;2022-08-21T05:35:42;9.50;;;7.43;;
4585;SDS011;2305;50.118;8.952;2022-08-21T05:38:11;11.80;;;7.97;;
4585;SDS011;2305;50.118;8.952;2022-08-21T05:40:45;9.90;;;8.10;;
4585;SDS011;2305;50.118;8.952;2022-08-21T05:43:14;10.03;;;6.67;;
4585;SDS011;2305;50.118;8.952;2022-08-21T05:45:42;10.53;;;8.27;;
4585;SDS011;2305;50.118;8.952;2022-08-21T05:48:12;8.90;;;6.80;;
4585;SDS011;2305;50.118;8.952;2022-08-21T05:50:41;8.80;;;7.53;;
4585;SDS011;2305;50.118;8.952;2022-08-21T05:53:11;10.37;;;8.10;;
4585;SDS011;2305;50.118;8.952;2022-08-21T05:55:40;10.73;;;7.63;;
4585;SDS011;2305;50.118;8.952;2022-08-21T05:58:14;13.53;;;8.40;;
4585;SDS011;2305;50.118;8.952;2022-08-21T06:00:43;12.60;;;8.07;;
4585;SDS011;2305;50.118;8.952;2022-08-21T06:03:13;12.53;;;7.33;;
4585;SDS011;2305;50.118;8.952;2022-08-21T06:05:43;15.50;;;8.43;;
4585;SDS011;2305;50.118;8.952;2022-08-21T06:08:12;12.10;;;8.23;;
4585;SDS011;2305;50.118;8.952;2022-08-21T06:10:40;14.10;;;8.73;;
4585;SDS011;2305;50.118;8.952;2022-08-21T06:13:08;11.73;;;7.93;;
4585;SDS011;2305;50.118;8.952;2022-08-21T06:15:38;16.70;;;7.40;;
4585;SDS011;2305;50.118;8.952;2022-08-21T06:18:06;10.70;;;7.90;;
4585;SDS011;2305;50.118;8.952;2022-08-21T06:20:34;14.53;;;8.90;;
4585;SDS011;2305;50.118;8.952;2022-08-21T06:23:03;10.00;;;7.67;;
4585;SDS011;2305;50.118;8.952;2022-08-21T06:25:33;10.70;;;7.97;;
4585;SDS011;2305;50.118;8.952;2022-08-21T06:28:01;10.87;;;8.23;;
4585;SDS011;2305;50.118;8.952;2022-08-21T06:30:30;10.27;;;7.87;;
4585;SDS011;2305;50.118;8.952;2022-08-21T06:33:00;9.73;;;7.60;;
4585;SDS011;2305;50.118;8.952;2022-08-21T06:35:29;9.67;;;8.00;;
4585;SDS011;2305;50.118;8.952;2022-08-21T06:37:57;12.60;;;8.30;;
4585;SDS011;2305;50.118;8.952;2022-08-21T06:40:28;11.07;;;7.40;;
4585;SDS011;2305;50.118;8.952;2022-08-21T06:43:04;10.93;;;7.57;;
4585;SDS011;2305;50.118;8.952;2022-08-21T06:45:34;13.00;;;7.60;;
4585;SDS011;2305;50.118;8.952;2022-08-21T06:48:04;13.57;;;8.10;;
4585;SDS011;2305;50.118;8.952;2022-08-21T06:50:33;10.00;;;7.07;;
4585;SDS011;2305;50.118;8.952;2022-08-21T06:53:03;10.60;;;7.70;;
4585;SDS011;2305;50.118;8.952;2022-08-21T06:55:33;10.20;;;7.27;;
4585;SDS011;2305;50.118;8.952;2022-08-21T06:58:03;12.57;;;7.77;;
4585;SDS011;2305;50.118;8.952;2022-08-21T07:00:32;12.03;;;7.57;;
4585;SDS011;2305;50.118;8.952;2022-08-21T07:03:00;11.87;;;7.10;;
4585;SDS011;2305;50.118;8.952;2022-08-21T07:05:30;13.40;;;7.40;;
4585;SDS011;2305;50.118;8.952;2022-08-21T07:07:58;14.40;;;7.57;;
4585;SDS011;2305;50.118;8.952;2022-08-21T07:10:27;8.33;;;6.53;;
4585;SDS011;2305;50.118;8.952;2022-08-21T07:12:55;9.30;;;6.40;;
4585;SDS011;2305;50.118;8.952;2022-08-21T07:15:27;12.50;;;6.63;;
4585;SDS011;2305;50.118;8.952;2022-08-21T07:17:56;14.23;;;8.00;;
4585;SDS011;2305;50.118;8.952;2022-08-21T07:20:25;10.07;;;6.90;;
4585;SDS011;2305;50.118;8.952;2022-08-21T07:22:55;9.10;;;6.10;;
4585;SDS011;2305;50.118;8.952;2022-08-21T07:25:25;14.03;;;6.30;;
4585;SDS011;2305;50.118;8.952;2022-08-21T07:27:53;8.60;;;5.90;;
4585;SDS011;2305;50.118;8.952;2022-08-21T07:30:23;9.87;;;6.73;;
4585;SDS011;2305;50.118;8.952;2022-08-21T07:32:52;10.67;;;7.00;;
4585;SDS011;2305;50.118;8.952;2022-08-21T07:35:20;11.03;;;6.47;;
4585;SDS011;2305;50.118;8.952;2022-08-21T07:37:49;9.27;;;6.43;;
4585;SDS011;2305;50.118;8.952;2022-08-21T07:40:19;9.20;;;6.73;;
4585;SDS011;2305;50.118;8.952;2022-08-21T07:42:47;8.47;;;5.80;;
4585;SDS011;2305;50.118;8.952;2022-08-21T07:45:19;13.70;;;6.30;;
4585;SDS011;2305;50.118;8.952;2022-08-21T07:47:48;12.30;;;6.87;;
4585;SDS011;2305;50.118;8.952;2022-08-21T07:50:25;14.97;;;5.90;;
4585;SDS011;2305;50.118;8.952;2022-08-21T07:52:53;9.00;;;6.30;;
4585;SDS011;2305;50.118;8.952;2022-08-21T07:55:22;10.20;;;5.60;;
4585;SDS011;2305;50.118;8.952;2022-08-21T07:57:51;8.93;;;5.60;;
4585;SDS011;2305;50.118;8.952;2022-08-21T08:00:20;10.37;;;6.40;;
4585;SDS011;2305;50.118;8.952;2022-08-21T08:02:52;8.43;;;5.30;;
4585;SDS011;2305;50.118;8.952;2022-08-21T08:05:21;10.47;;;6.70;;
4585;SDS011;2305;50.118;8.952;2022-08-21T08:07:52;6.97;;;5.53;;
4585;SDS011;2305;50.118;8.952;2022-08-21T08:10:21;10.00;;;5.77;;
4585;SDS011;2305;50.118;8.952;2022-08-21T08:12:51;11.23;;;5.37;;
4585;SDS011;2305;50.118;8.952;2022-08-21T08:15:22;12.83;;;6.00;;
4585;SDS011;2305;50.118;8.952;2022-08-21T08:17:52;7.50;;;5.43;;
4585;SDS011;2305;50.118;8.952;2022-08-21T08:20:21;9.67;;;6.57;;
4585;SDS011;2305;50.118;8.952;2022-08-21T08:22:51;14.20;;;6.50;;
4585;SDS011;2305;50.118;8.952;2022-08-21T08:25:20;13.33;;;6.53;;
4585;SDS011;2305;50.118;8.952;2022-08-21T08:27:51;9.27;;;5.20;;
4585;SDS011;2305;50.118;8.952;2022-08-21T08:30:20;8.60;;;5.90;;
4585;SDS011;2305;50.118;8.952;2022-08-21T08:32:50;9.40;;;5.33;;
4585;SDS011;2305;50.118;8.952;2022-08-21T08:35:18;5.67;;;4.43;;
4585;SDS011;2305;50.118;8.952;2022-08-21T08:37:50;10.23;;;6.00;;
4585;SDS011;2305;50.118;8.952;2022-08-21T08:40:20;10.20;;;5.13;;
4585;SDS011;2305;50.118;8.952;2022-08-21T08:42:58;14.70;;;5.83;;
4585;SDS011;2305;50.118;8.952;2022-08-21T08:45:27;8.57;;;5.20;;
4585;SDS011;2305;50.118;8.952;2022-08-21T08:48:00;7.93;;;5.57;;
4585;SDS011;2305;50.118;8.952;2022-08-21T08:50:40;12.80;;;6.50;;
4585;SDS011;2305;50.118;8.952;2022-08-21T08:53:11;13.30;;;4.90;;
4585;SDS011;2305;50.118;8.952;2022-08-21T08:55:44;6.97;;;5.30;;
4585;SDS011;2305;50.118;8.952;2022-08-21T08:58:14;10.57;;;5.70;;
4585;SDS011;2305;50.118;8.952;2022-08-21T09:00:51;9.37;;;5.17;;
4585;SDS011;2305;50.118;8.952;2022-08-21T09:03:24;10.90;;;5.17;;
4585;SDS011;2305;50.118;8.952;2022-08-21T09:06:00;17.87;;;5.27;;
4585;SDS011;2305;50.118;8.952;2022-08-21T09:08:39;11.00;;;4.93;;
4585;SDS011;2305;50.118;8.952;2022-08-21T09:11:20;6.57;;;4.03;;
4585;SDS011;2305;50.118;8.952;2022-08-21T09:13:55;11.77;;;6.30;;
4585;SDS011;2305;50.118;8.952;2022-08-21T09:16:37;10.10;;;5.20;;
4585;SDS011;2305;50.118;8.952;2022-08-21T09:19:23;6.60;;;4.80;;
4585;SDS011;2305;50.118;8.952;2022-08-21T09:22:08;8.80;;;6.20;;
4585;SDS011;2305;50.118;8.952;2022-08-21T09:24:47;9.53;;;5.70;;
4585;SDS011;2305;50.118;8.952;2022-08-21T09:27:22;11.20;;;5.93;;
4585;SDS011;2305;50.118;8.952;2022-08-21T09:29:52;9.63;;;5.80;;
4585;SDS011;2305;50.118;8.952;2022-08-21T09:32:24;7.63;;;5.20;;
4585;SDS011;2305;50.118;8.952;2022-08-21T09:35:04;10.23;;;5.00;;
4585;SDS011;2305;50.118;8.952;2022-08-21T09:37:44;6.83;;;4.80;;
4585;SDS011;2305;50.118;8.952;2022-08-21T09:40:18;8.60;;;4.50;;
4585;SDS011;2305;50.118;8.952;2022-08-21T09:42:55;8.10;;;4.47;;
4585;SDS011;2305;50.118;8.952;2022-08-21T09:45:28;8.83;;;3.87;;
4585;SDS011;2305;50.118;8.952;2022-08-21T09:48:09;11.60;;;6.30;;
4585;SDS011;2305;50.118;8.952;2022-08-21T09:50:39;8.53;;;4.27;;
4585;SDS011;2305;50.118;8.952;2022-08-21T09:53:14;5.00;;;2.90;;
4585;SDS011;2305;50.118;8.952;2022-08-21T09:55:49;9.20;;;3.43;;
4585;SDS011;2305;50.118;8.952;2022-08-21T09:58:39;9.33;;;3.30;;
4585;SDS011;2305;50.118;8.952;2022-08-21T10:01:12;7.67;;;3.20;;
4585;SDS011;2305;50.118;8.952;2022-08-21T10:03:42;7.87;;;3.47;;
4585;SDS011;2305;50.118;8.952;2022-08-21T10:06:19;7.13;;;3.17;;
4585;SDS011;2305;50.118;8.952;2022-08-21T10:08:49;12.53;;;3.37;;
4585;SDS011;2305;50.118;8.952;2022-08-21T10:11:18;7.57;;;3.63;;
4585;SDS011;2305;50.118;8.952;2022-08-21T10:13:57;12.70;;;3.80;;
4585;SDS011;2305;50.118;8.952;2022-08-21T10:16:37;7.83;;;3.23;;
4585;SDS011;2305;50.118;8.952;2022-08-21T10:19:16;7.13;;;3.47;;
4585;SDS011;2305;50.118;8.952;2022-08-21T10:21:54;9.93;;;3.70;;
4585;SDS011;2305;50.118;8.952;2022-08-21T10:24:29;7.27;;;3.43;;
4585;SDS011;2305;50.118;8.952;2022-08-21T10:27:06;9.03;;;2.80;;
4585;SDS011;2305;50.118;8.952;2022-08-21T10:29:50;8.50;;;3.50;;
4585;SDS011;2305;50.118;8.952;2022-08-21T10:32:44;7.13;;;4.70;;
4585;SDS011;2305;50.118;8.952;2022-08-21T10:35:31;10.47;;;3.87;;
4585;SDS011;2305;50.118;8.952;2022-08-21T10:38:10;6.73;;;3.20;;
4585;SDS011;2305;50.118;8.952;2022-08-21T10:41:19;7.67;;;3.60;;
4585;SDS011;2305;50.118;8.952;2022-08-21T10:44:01;7.40;;;3.50;;
4585;SDS011;2305;50.118;8.952;2022-08-21T10:46:43;7.80;;;3.80;;
4585;SDS011;2305;50.118;8.952;2022-08-21T10:49:21;8.00;;;3.67;;
4585;SDS011;2305;50.118;8.952;2022-08-21T10:51:54;4.67;;;3.23;;
4585;SDS011;2305;50.118;8.952;2022-08-21T10:54:32;8.37;;;4.10;;
4585;SDS011;2305;50.118;8.952;2022-08-21T10:57:07;7.97;;;4.30;;
4585;SDS011;2305;50.118;8.952;2022-08-21T10:59:58;5.67;;;3.47;;
4585;SDS011;2305;50.118;8.952;2022-08-21T11:02:35;6.03;;;3.47;;
4585;SDS011;2305;50.118;8.952;2022-08-21T11:05:08;7.10;;;3.43;;
4585;SDS011;2305;50.118;8.952;2022-08-21T11:07:43;5.93;;;3.63;;
4585;SDS011;2305;50.118;8.952;2022-08-21T11:10:16;9.20;;;3.37;;
4585;SDS011;2305;50.118;8.952;2022-08-21T11:12:51;10.60;;;4.17;;
4585;SDS011;2305;50.118;8.952;2022-08-21T11:15:31;5.40;;;3.63;;
4585;SDS011;2305;50.118;8.952;2022-08-21T11:18:10;8.63;;;3.20;;
4585;SDS011;2305;50.118;8.952;2022-08-21T11:20:46;7.37;;;3.93;;
4585;SDS011;2305;50.118;8.952;2022-08-21T11:23:21;9.57;;;3.53;;
4585;SDS011;2305;50.118;8.952;2022-08-21T11:25:53;7.77;;;3.50;;
4585;SDS011;2305;50.118;8.952;2022-08-21T11:28:26;4.37;;;3.07;;
4585;SDS011;2305;50.118;8.952;2022-08-21T11:31:01;7.40;;;3.37;;
4585;SDS011;2305;50.118;8.952;2022-08-21T11:33:46;6.60;;;3.50;;
4585;SDS011;2305;50.118;8.952;2022-08-21T11:36:22;8.50;;;4.00;;
4585;SDS011;2305;50.118;8.952;2022-08-21T11:38:57;7.40;;;3.60;;
4585;SDS011;2305;50.118;8.952;2022-08-21T11:41:34;3.77;;;3.07;;
4585;SDS011;2305;50.118;8.952;2022-08-21T11:44:10;8.33;;;3.60;;
4585;SDS011;2305;50.118;8.952;2022-08-21T11:46:47;5.77;;;3.53;;
4585;SDS011;2305;50.118;8.952;2022-08-21T11:49:33;12.90;;;3.93;;
4585;SDS011;2305;50.118;8.952;2022-08-21T11:52:13;10.47;;;4.13;;
4585;SDS011;2305;50.118;8.952;2022-08-21T11:54:49;7.33;;;3.70;;
4585;SDS011;2305;50.118;8.952;2022-08-21T11:57:23;6.70;;;3.23;;
4585;SDS011;2305;50.118;8.952;2022-08-21T11:59:56;5.20;;;2.83;;
4585;SDS011;2305;50.118;8.952;2022-08-21T12:02:28;7.87;;;3.90;;
4585;SDS011;2305;50.118;8.952;2022-08-21T12:05:01;7.57;;;3.03;;
4585;SDS011;2305;50.118;8.952;2022-08-21T12:07:35;6.77;;;3.47;;
4585;SDS011;2305;50.118;8.952;2022-08-21T12:10:06;7.37;;;3.73;;
4585;SDS011;2305;50.118;8.952;2022-08-21T12:12:36;8.30;;;2.87;;
4585;SDS011;2305;50.118;8.952;2022-08-21T12:15:17;3.90;;;2.70;;
4585;SDS011;2305;50.118;8.952;2022-08-21T12:17:55;5.23;;;2.90;;
4585;SDS011;2305;50.118;8.952;2022-08-21T12:20:33;3.17;;;2.83;;
4585;SDS011;2305;50.118;8.952;2022-08-21T12:23:18;8.10;;;3.23;;
4585;SDS011;2305;50.118;8.952;2022-08-21T12:26:01;6.33;;;2.80;;
4585;SDS011;2305;50.118;8.952;2022-08-21T12:28:46;5.93;;;2.90;;
4585;SDS011;2305;50.118;8.952;2022-08-21T12:31:18;8.23;;;3.40;;
4585;SDS011;2305;50.118;8.952;2022-08-21T12:33:53;6.70;;;3.47;;
4585;SDS011;2305;50.118;8.952;2022-08-21T12:36:28;5.73;;;2.83;;
4585;SDS011;2305;50.118;8.952;2022-08-21T12:39:10;5.33;;;3.00;;
4585;SDS011;2305;50.118;8.952;2022-08-21T12:41:43;4.50;;;2.70;;
4585;SDS011;2305;50.118;8.952;2022-08-21T12:44:16;4.00;;;2.60;;
4585;SDS011;2305;50.118;8.952;2022-08-21T12:46:50;7.13;;;3.00;;
4585;SDS011;2305;50.118;8.952;2022-08-21T12:49:26;10.10;;;3.03;;
4585;SDS011;2305;50.118;8.952;2022-08-21T12:52:02;6.60;;;3.27;;
4585;SDS011;2305;50.118;8.952;2022-08-21T12:54:44;6.17;;;3.00;;
4585;SDS011;2305;50.118;8.952;2022-08-21T12:57:17;4.73;;;2.80;;
4585;SDS011;2305;50.118;8.952;2022-08-21T12:59:53;5.10;;;3.07;;
4585;SDS011;2305;50.118;8.952;2022-08-21T13:02:23;4.83;;;3.37;;
4585;SDS011;2305;50.118;8.952;2022-08-21T13:04:57;6.13;;;2.93;;
4585;SDS011;2305;50.118;8.952;2022-08-21T13:07:31;5.70;;;3.30;;
4585;SDS011;2305;50.118;8.952;2022-08-21T13:10:02;4.17;;;2.80;;
4585;SDS011;2305;50.118;8.952;2022-08-21T13:12:32;4.63;;;2.80;;
4585;SDS011;2305;50.118;8.952;2022-08-21T13:15:03;6.93;;;3.40;;
4585;SDS011;2305;50.118;8.952;2022-08-21T13:17:35;5.50;;;2.80;;
4585;SDS011;2305;50.118;8.952;2022-08-21T13:20:07;4.60;;;2.50;;
4585;SDS011;2305;50.118;8.952;2022-08-21T13:22:41;4.90;;;3.10;;
4585;SDS011;2305;50.118;8.952;2022-08-21T13:25:11;4.93;;;2.73;;
4585;SDS011;2305;50.118;8.952;2022-08-21T13:27:40;6.37;;;2.60;;
4585;SDS011;2305;50.118;8.952;2022-08-21T13:30:10;8.23;;;2.63;;
4585;SDS011;2305;50.118;8.952;2022-08-21T13:32:41;4.30;;;3.10;;
4585;SDS011;2305;50.118;8.952;2022-08-21T13:35:13;5.40;;;2.50;;
4585;SDS011;2305;50.118;8.952;2022-08-21T13:37:46;5.30;;;3.27;;
4585;SDS011;2305;50.118;8.952;2022-08-21T13:40:17;4.33;;;2.80;;
4585;SDS011;2305;50.118;8.952;2022-08-21T13:42:47;4.50;;;2.80;;
4585;SDS011;2305;50.118;8.952;2022-08-21T13:45:17;3.83;;;2.40;;
4585;SDS011;2305;50.118;8.952;2022-08-21T13:47:50;4.27;;;2.30;;
4585;SDS011;2305;50.118;8.952;2022-08-21T13:50:23;4.67;;;2.70;;
4585;SDS011;2305;50.118;8.952;2022-08-21T13:52:57;6.57;;;2.70;;
4585;SDS011;2305;50.118;8.952;2022-08-21T13:55:36;3.27;;;2.03;;
4585;SDS011;2305;50.118;8.952;2022-08-21T13:58:05;4.50;;;2.60;;
4585;SDS011;2305;50.118;8.952;2022-08-21T14:00:37;6.30;;;2.40;;
4585;SDS011;2305;50.118;8.952;2022-08-21T14:03:13;6.03;;;2.53;;
4585;SDS011;2305;50.118;8.952;2022-08-21T14:05:54;6.07;;;2.97;;
4585;SDS011;2305;50.118;8.952;2022-08-21T14:08:29;11.53;;;3.10;;
4585;SDS011;2305;50.118;8.952;2022-08-21T14:11:02;5.57;;;2.03;;
4585;SDS011;2305;50.118;8.952;2022-08-21T14:13:37;4.37;;;2.37;;
4585;SDS011;2305;50.118;8.952;2022-08-21T14:16:12;7.97;;;2.90;;
4585;SDS011;2305;50.118;8.952;2022-08-21T14:18:46;4.30;;;2.40;;
4585;SDS011;2305;50.118;8.952;2022-08-21T14:21:24;4.80;;;2.90;;
4585;SDS011;2305;50.118;8.952;2022-08-21T14:24:04;6.70;;;2.57;;
4585;SDS011;2305;50.118;8.952;2022-08-21T14:26:36;5.10;;;2.47;;
4585;SDS011;2305;50.118;8.952;2022-08-21T14:29:11;8.20;;;2.57;;
4585;SDS011;2305;50.118;8.952;2022-08-21T14:31:41;5.43;;;2.60;;
4585;SDS011;2305;50.118;8.952;2022-08-21T14:34:11;3.80;;;2.30;;
4585;SDS011;2305;50.118;8.952;2022-08-21T14:36:45;3.90;;;2.30;;
4585;SDS011;2305;50.118;8.952;2022-08-21T14:39:16;3.37;;;2.10;;
4585;SDS011;2305;50.118;8.952;2022-08-21T14:41:44;5.17;;;2.53;;
4585;SDS011;2305;50.118;8.952;2022-08-21T14:44:14;3.20;;;2.00;;
4585;SDS011;2305;50.118;8.952;2022-08-21T14:46:44;7.20;;;2.20;;
4585;SDS011;2305;50.118;8.952;2022-08-21T14:49:23;4.60;;;2.30;;
4585;SDS011;2305;50.118;8.952;2022-08-21T14:51:54;4.93;;;2.50;;
4585;SDS011;2305;50.118;8.952;2022-08-21T14:54:26;5.57;;;2.17;;
4585;SDS011;2305;50.118;8.952;2022-08-21T14:56:58;4.80;;;2.33;;
4585;SDS011;2305;50.118;8.952;2022-08-21T14:59:32;6.80;;;2.93;;
4585;SDS011;2305;50.118;8.952;2022-08-21T15:02:02;3.37;;;2.47;;
4585;SDS011;2305;50.118;8.952;2022-08-21T15:04:33;3.60;;;1.87;;
4585;SDS011;2305;50.118;8.952;2022-08-21T15:07:02;2.93;;;2.10;;
4585;SDS011;2305;50.118;8.952;2022-08-21T15:09:32;9.10;;;2.40;;
4585;SDS011;2305;50.118;8.952;2022-08-21T15:12:00;7.70;;;2.20;;
4585;SDS011;2305;50.118;8.952;2022-08-21T15:14:30;5.23;;;2.63;;
4585;SDS011;2305;50.118;8.952;2022-08-21T15:17:01;2.97;;;2.13;;
4585;SDS011;2305;50.118;8.952;2022-08-21T15:19:30;3.50;;;2.23;;
4585;SDS011;2305;50.118;8.952;2022-08-21T15:21:58;4.23;;;2.50;;
4585;SDS011;2305;50.118;8.952;2022-08-21T15:24:42;10.43;;;2.23;;
4585;SDS011;2305;50.118;8.952;2022-08-21T15:27:10;4.03;;;1.70;;
4585;SDS011;2305;50.118;8.952;2022-08-21T15:29:42;4.27;;;2.30;;
4585;SDS011;2305;50.118;8.952;2022-08-21T15:32:20;2.90;;;1.93;;
4585;SDS011;2305;50.118;8.952;2022-08-21T15:34:52;3.50;;;1.97;;
4585;SDS011;2305;50.118;8.952;2022-08-21T15:37:20;4.70;;;2.03;;
4585;SDS011;2305;50.118;8.952;2022-08-21T15:39:50;6.07;;;2.00;;